sensor_id;sensor_type;location;lat;lon;timestamp;P1;durP1;ratioP1;P2;durP2;ratioP2
24873;SDS011;12945;42.648;23.370;2023-12-07T00:00:14;40.78;;;21.95;;
24873;SDS011;12945;42.648;23.370;2023-12-07T00:02:40;39.53;;;22.98;;
24873;SDS011;12945;42.648;23.370;2023-12-07T00:05:05;35.13;;;20.92;;
24873;SDS011;12945;42.648;23.370;2023-12-07T00:07:30;39.17;;;22.90;;
24873;SDS011;12945;42.648;23.370;2023-12-07T00:09:56;42.08;;;23.35;;
24873;SDS011;12945;42.648;23.370;2023-12-07T00:12:21;40.85;;;23.30;;
24873;SDS011;12945;42.648;23.370;2023-12-07T00:14:46;44.72;;;24.08;;
24873;SDS011;12945;42.648;23.370;2023-12-07T00:17:12;43.42;;;23.08;;
24873;SDS011;12945;42.648;23.370;2023-12-07T00:19:37;36.85;;;22.75;;
24873;SDS011;12945;42.648;23.370;2023-12-07T00:22:02;44.95;;;24.55;;
24873;SDS011;12945;42.648;23.370;2023-12-07T00:24:28;42.33;;;25.00;;
24873;SDS011;12945;42.648;23.370;2023-12-07T00:26:53;45.38;;;24.85;;
24873;SDS011;12945;42.648;23.370;2023-12-07T00:29:19;45.83;;;25.10;;
24873;SDS011;12945;42.648;23.370;2023-12-07T00:31:44;41.50;;;23.98;;
24873;SDS011;12945;42.648;23.370;2023-12-07T00:34:09;40.97;;;24.90;;
24873;SDS011;12945;42.648;23.370;2023-12-07T00:36:35;41.88;;;24.60;;
24873;SDS011;12945;42.648;23.370;2023-12-07T00:39:00;42.80;;;25.90;;
24873;SDS011;12945;42.648;23.370;2023-12-07T00:41:25;47.97;;;25.67;;
24873;SDS011;12945;42.648;23.370;2023-12-07T00:43:51;46.03;;;26.63;;
24873;SDS011;12945;42.648;23.370;2023-12-07T00:46:16;52.15;;;27.95;;
24873;SDS011;12945;42.648;23.370;2023-12-07T00:48:41;51.05;;;27.63;;
24873;SDS011;12945;42.648;23.370;2023-12-07T00:51:07;54.25;;;28.75;;
24873;SDS011;12945;42.648;23.370;2023-12-07T00:53:32;53.28;;;29.67;;
24873;SDS011;12945;42.648;23.370;2023-12-07T00:55:57;50.90;;;28.13;;
24873;SDS011;12945;42.648;23.370;2023-12-07T00:58:23;51.72;;;28.42;;
24873;SDS011;12945;42.648;23.370;2023-12-07T01:00:48;46.42;;;27.88;;
24873;SDS011;12945;42.648;23.370;2023-12-07T01:03:13;55.78;;;30.45;;
24873;SDS011;12945;42.648;23.370;2023-12-07T01:05:39;50.65;;;28.35;;
24873;SDS011;12945;42.648;23.370;2023-12-07T01:08:04;56.88;;;30.42;;
24873;SDS011;12945;42.648;23.370;2023-12-07T01:10:29;65.70;;;33.15;;
24873;SDS011;12945;42.648;23.370;2023-12-07T01:12:55;64.75;;;33.25;;
24873;SDS011;12945;42.648;23.370;2023-12-07T01:15:20;69.63;;;34.42;;
24873;SDS011;12945;42.648;23.370;2023-12-07T01:17:45;70.07;;;35.33;;
24873;SDS011;12945;42.648;23.370;2023-12-07T01:20:11;65.45;;;34.90;;
24873;SDS011;12945;42.648;23.370;2023-12-07T01:22:40;65.32;;;34.65;;
24873;SDS011;12945;42.648;23.370;2023-12-07T01:25:10;68.32;;;35.90;;
24873;SDS011;12945;42.648;23.370;2023-12-07T01:27:36;68.30;;;37.28;;
24873;SDS011;12945;42.648;23.370;2023-12-07T01:30:01;64.72;;;34.50;;
24873;SDS011;12945;42.648;23.370;2023-12-07T01:32:28;61.45;;;34.60;;
24873;SDS011;12945;42.648;23.370;2023-12-07T01:34:53;70.28;;;35.33;;
24873;SDS011;12945;42.648;23.370;2023-12-07T01:37:19;66.53;;;33.92;;
24873;SDS011;12945;42.648;23.370;2023-12-07T01:39:44;68.15;;;35.88;;
24873;SDS011;12945;42.648;23.370;2023-12-07T01:42:09;63.60;;;34.53;;
24873;SDS011;12945;42.648;23.370;2023-12-07T01:44:37;64.85;;;35.30;;
24873;SDS011;12945;42.648;23.370;2023-12-07T01:47:02;69.45;;;36.60;;
24873;SDS011;12945;42.648;23.370;2023-12-07T01:49:27;71.68;;;38.40;;
24873;SDS011;12945;42.648;23.370;2023-12-07T01:51:53;70.13;;;37.38;;
24873;SDS011;12945;42.648;23.370;2023-12-07T01:54:19;66.55;;;34.95;;
24873;SDS011;12945;42.648;23.370;2023-12-07T01:56:44;65.60;;;35.78;;
24873;SDS011;12945;42.648;23.370;2023-12-07T01:59:10;70.78;;;37.25;;
24873;SDS011;12945;42.648;23.370;2023-12-07T02:01:36;70.13;;;36.53;;
24873;SDS011;12945;42.648;23.370;2023-12-07T02:04:01;64.28;;;35.53;;
24873;SDS011;12945;42.648;23.370;2023-12-07T02:06:26;62.63;;;33.80;;
24873;SDS011;12945;42.648;23.370;2023-12-07T02:08:51;59.53;;;32.35;;
24873;SDS011;12945;42.648;23.370;2023-12-07T02:11:17;66.90;;;33.50;;
24873;SDS011;12945;42.648;23.370;2023-12-07T02:13:43;63.92;;;33.08;;
24873;SDS011;12945;42.648;23.370;2023-12-07T02:16:22;61.35;;;33.40;;
24873;SDS011;12945;42.648;23.370;2023-12-07T02:18:50;60.10;;;33.03;;
24873;SDS011;12945;42.648;23.370;2023-12-07T02:21:30;62.63;;;32.75;;
24873;SDS011;12945;42.648;23.370;2023-12-07T02:23:59;60.53;;;33.72;;
24873;SDS011;12945;42.648;23.370;2023-12-07T02:29:15;60.63;;;32.90;;
24873;SDS011;12945;42.648;23.370;2023-12-07T02:31:40;61.60;;;33.45;;
24873;SDS011;12945;42.648;23.370;2023-12-07T02:34:05;58.40;;;32.83;;
24873;SDS011;12945;42.648;23.370;2023-12-07T02:36:31;59.42;;;32.53;;
24873;SDS011;12945;42.648;23.370;2023-12-07T02:38:58;61.80;;;32.45;;
24873;SDS011;12945;42.648;23.370;2023-12-07T02:41:23;61.47;;;33.90;;
24873;SDS011;12945;42.648;23.370;2023-12-07T02:43:51;61.85;;;33.78;;
24873;SDS011;12945;42.648;23.370;2023-12-07T02:46:16;61.92;;;33.03;;
24873;SDS011;12945;42.648;23.370;2023-12-07T02:48:42;58.70;;;33.10;;
24873;SDS011;12945;42.648;23.370;2023-12-07T02:51:07;61.08;;;33.17;;
24873;SDS011;12945;42.648;23.370;2023-12-07T02:53:33;63.00;;;33.30;;
24873;SDS011;12945;42.648;23.370;2023-12-07T02:55:59;60.38;;;32.70;;
24873;SDS011;12945;42.648;23.370;2023-12-07T02:58:24;60.78;;;32.67;;
24873;SDS011;12945;42.648;23.370;2023-12-07T03:00:49;58.60;;;33.22;;
24873;SDS011;12945;42.648;23.370;2023-12-07T03:03:15;57.88;;;31.95;;
24873;SDS011;12945;42.648;23.370;2023-12-07T03:05:40;57.78;;;30.98;;
24873;SDS011;12945;42.648;23.370;2023-12-07T03:08:05;59.75;;;31.30;;
24873;SDS011;12945;42.648;23.370;2023-12-07T03:10:30;56.90;;;30.75;;
24873;SDS011;12945;42.648;23.370;2023-12-07T03:12:56;56.50;;;30.92;;
24873;SDS011;12945;42.648;23.370;2023-12-07T03:15:21;54.42;;;30.15;;
24873;SDS011;12945;42.648;23.370;2023-12-07T03:17:46;57.75;;;31.02;;
24873;SDS011;12945;42.648;23.370;2023-12-07T03:20:12;59.90;;;30.23;;
24873;SDS011;12945;42.648;23.370;2023-12-07T03:22:37;57.30;;;30.30;;
24873;SDS011;12945;42.648;23.370;2023-12-07T03:25:03;55.60;;;30.95;;
24873;SDS011;12945;42.648;23.370;2023-12-07T03:27:28;55.47;;;30.30;;
24873;SDS011;12945;42.648;23.370;2023-12-07T03:29:54;54.95;;;30.15;;
24873;SDS011;12945;42.648;23.370;2023-12-07T03:32:19;52.22;;;30.38;;
24873;SDS011;12945;42.648;23.370;2023-12-07T03:34:44;66.90;;;30.50;;
24873;SDS011;12945;42.648;23.370;2023-12-07T03:37:09;52.13;;;28.63;;
24873;SDS011;12945;42.648;23.370;2023-12-07T03:39:35;54.97;;;29.75;;
24873;SDS011;12945;42.648;23.370;2023-12-07T03:42:00;62.83;;;32.97;;
24873;SDS011;12945;42.648;23.370;2023-12-07T03:44:25;59.17;;;30.55;;
24873;SDS011;12945;42.648;23.370;2023-12-07T03:46:51;55.40;;;30.75;;
24873;SDS011;12945;42.648;23.370;2023-12-07T03:49:17;53.17;;;29.90;;
24873;SDS011;12945;42.648;23.370;2023-12-07T03:51:42;55.33;;;29.20;;
24873;SDS011;12945;42.648;23.370;2023-12-07T03:54:07;58.05;;;29.55;;
24873;SDS011;12945;42.648;23.370;2023-12-07T03:56:33;57.30;;;30.75;;
24873;SDS011;12945;42.648;23.370;2023-12-07T03:58:58;53.58;;;29.45;;
24873;SDS011;12945;42.648;23.370;2023-12-07T04:01:24;53.15;;;29.52;;
24873;SDS011;12945;42.648;23.370;2023-12-07T04:03:50;53.17;;;30.45;;
24873;SDS011;12945;42.648;23.370;2023-12-07T04:06:15;54.33;;;30.60;;
24873;SDS011;12945;42.648;23.370;2023-12-07T04:08:41;55.65;;;29.65;;
24873;SDS011;12945;42.648;23.370;2023-12-07T04:11:06;54.05;;;30.15;;
24873;SDS011;12945;42.648;23.370;2023-12-07T04:13:32;53.78;;;30.05;;
24873;SDS011;12945;42.648;23.370;2023-12-07T04:15:57;48.90;;;29.08;;
24873;SDS011;12945;42.648;23.370;2023-12-07T04:18:22;54.67;;;29.33;;
24873;SDS011;12945;42.648;23.370;2023-12-07T04:20:48;53.08;;;29.75;;
24873;SDS011;12945;42.648;23.370;2023-12-07T04:23:13;52.92;;;29.05;;
24873;SDS011;12945;42.648;23.370;2023-12-07T04:25:38;57.95;;;30.52;;
24873;SDS011;12945;42.648;23.370;2023-12-07T04:28:04;73.30;;;40.72;;
24873;SDS011;12945;42.648;23.370;2023-12-07T04:30:29;69.63;;;38.33;;
24873;SDS011;12945;42.648;23.370;2023-12-07T04:32:54;64.43;;;36.10;;
24873;SDS011;12945;42.648;23.370;2023-12-07T04:35:20;59.50;;;34.00;;
24873;SDS011;12945;42.648;23.370;2023-12-07T04:37:45;56.40;;;32.65;;
24873;SDS011;12945;42.648;23.370;2023-12-07T04:40:10;53.47;;;30.58;;
24873;SDS011;12945;42.648;23.370;2023-12-07T04:42:36;55.47;;;29.40;;
24873;SDS011;12945;42.648;23.370;2023-12-07T04:45:01;54.10;;;29.98;;
24873;SDS011;12945;42.648;23.370;2023-12-07T04:47:27;52.45;;;29.20;;
24873;SDS011;12945;42.648;23.370;2023-12-07T04:49:52;54.75;;;30.20;;
24873;SDS011;12945;42.648;23.370;2023-12-07T04:52:17;54.28;;;29.05;;
24873;SDS011;12945;42.648;23.370;2023-12-07T04:54:44;52.03;;;28.63;;
24873;SDS011;12945;42.648;23.370;2023-12-07T04:57:09;52.70;;;27.70;;
24873;SDS011;12945;42.648;23.370;2023-12-07T04:59:35;52.20;;;28.02;;
24873;SDS011;12945;42.648;23.370;2023-12-07T05:02:00;48.78;;;27.92;;
24873;SDS011;12945;42.648;23.370;2023-12-07T05:04:25;55.13;;;27.77;;
24873;SDS011;12945;42.648;23.370;2023-12-07T05:06:50;52.45;;;28.20;;
24873;SDS011;12945;42.648;23.370;2023-12-07T05:09:16;54.67;;;29.20;;
24873;SDS011;12945;42.648;23.370;2023-12-07T05:11:41;51.05;;;27.90;;
24873;SDS011;12945;42.648;23.370;2023-12-07T05:14:06;49.33;;;27.85;;
24873;SDS011;12945;42.648;23.370;2023-12-07T05:16:32;49.78;;;28.50;;
24873;SDS011;12945;42.648;23.370;2023-12-07T05:18:57;56.17;;;29.85;;
24873;SDS011;12945;42.648;23.370;2023-12-07T05:21:22;50.65;;;28.45;;
24873;SDS011;12945;42.648;23.370;2023-12-07T05:23:48;46.75;;;27.25;;
24873;SDS011;12945;42.648;23.370;2023-12-07T05:26:13;49.05;;;27.65;;
24873;SDS011;12945;42.648;23.370;2023-12-07T05:28:39;54.17;;;27.98;;
24873;SDS011;12945;42.648;23.370;2023-12-07T05:31:05;44.70;;;25.90;;
24873;SDS011;12945;42.648;23.370;2023-12-07T05:33:32;44.25;;;24.83;;
24873;SDS011;12945;42.648;23.370;2023-12-07T05:35:57;47.83;;;26.27;;
24873;SDS011;12945;42.648;23.370;2023-12-07T05:38:22;46.53;;;25.33;;
24873;SDS011;12945;42.648;23.370;2023-12-07T05:40:48;49.03;;;25.63;;
24873;SDS011;12945;42.648;23.370;2023-12-07T05:43:13;45.15;;;24.67;;
24873;SDS011;12945;42.648;23.370;2023-12-07T05:45:38;45.92;;;26.83;;
24873;SDS011;12945;42.648;23.370;2023-12-07T05:48:04;47.38;;;25.92;;
24873;SDS011;12945;42.648;23.370;2023-12-07T05:50:29;46.97;;;25.45;;
24873;SDS011;12945;42.648;23.370;2023-12-07T05:52:54;45.40;;;25.05;;
24873;SDS011;12945;42.648;23.370;2023-12-07T05:55:20;48.40;;;27.20;;
24873;SDS011;12945;42.648;23.370;2023-12-07T05:57:45;45.70;;;26.83;;
24873;SDS011;12945;42.648;23.370;2023-12-07T06:00:11;49.80;;;27.38;;
24873;SDS011;12945;42.648;23.370;2023-12-07T06:02:37;49.20;;;27.42;;
24873;SDS011;12945;42.648;23.370;2023-12-07T06:05:03;48.22;;;27.42;;
24873;SDS011;12945;42.648;23.370;2023-12-07T06:07:30;49.60;;;27.90;;
24873;SDS011;12945;42.648;23.370;2023-12-07T06:09:55;47.80;;;27.80;;
24873;SDS011;12945;42.648;23.370;2023-12-07T06:12:21;48.85;;;27.50;;
24873;SDS011;12945;42.648;23.370;2023-12-07T06:14:47;48.92;;;28.48;;
24873;SDS011;12945;42.648;23.370;2023-12-07T06:17:12;41.83;;;24.85;;
24873;SDS011;12945;42.648;23.370;2023-12-07T06:19:37;44.08;;;26.05;;
24873;SDS011;12945;42.648;23.370;2023-12-07T06:22:03;45.72;;;25.88;;
24873;SDS011;12945;42.648;23.370;2023-12-07T06:24:28;47.47;;;26.67;;
24873;SDS011;12945;42.648;23.370;2023-12-07T06:26:53;45.00;;;25.58;;
24873;SDS011;12945;42.648;23.370;2023-12-07T06:29:19;43.22;;;25.27;;
24873;SDS011;12945;42.648;23.370;2023-12-07T06:31:44;46.40;;;25.25;;
24873;SDS011;12945;42.648;23.370;2023-12-07T06:34:10;46.08;;;25.92;;
24873;SDS011;12945;42.648;23.370;2023-12-07T06:36:35;43.85;;;25.60;;
24873;SDS011;12945;42.648;23.370;2023-12-07T06:39:01;37.60;;;22.35;;
24873;SDS011;12945;42.648;23.370;2023-12-07T06:41:26;42.70;;;23.60;;
24873;SDS011;12945;42.648;23.370;2023-12-07T06:43:51;41.92;;;25.13;;
24873;SDS011;12945;42.648;23.370;2023-12-07T06:46:17;45.60;;;23.65;;
24873;SDS011;12945;42.648;23.370;2023-12-07T06:48:42;39.13;;;23.50;;
24873;SDS011;12945;42.648;23.370;2023-12-07T06:51:07;44.88;;;24.45;;
24873;SDS011;12945;42.648;23.370;2023-12-07T06:53:33;37.00;;;22.73;;
24873;SDS011;12945;42.648;23.370;2023-12-07T06:55:59;40.70;;;22.95;;
24873;SDS011;12945;42.648;23.370;2023-12-07T06:58:24;37.80;;;21.00;;
24873;SDS011;12945;42.648;23.370;2023-12-07T07:00:50;37.55;;;20.27;;
24873;SDS011;12945;42.648;23.370;2023-12-07T07:03:15;34.55;;;19.52;;
24873;SDS011;12945;42.648;23.370;2023-12-07T07:05:41;34.63;;;20.15;;
24873;SDS011;12945;42.648;23.370;2023-12-07T07:08:06;33.25;;;19.60;;
24873;SDS011;12945;42.648;23.370;2023-12-07T07:10:33;37.40;;;18.95;;
24873;SDS011;12945;42.648;23.370;2023-12-07T07:13:01;34.13;;;18.95;;
24873;SDS011;12945;42.648;23.370;2023-12-07T07:15:33;32.92;;;18.00;;
24873;SDS011;12945;42.648;23.370;2023-12-07T07:17:58;31.75;;;17.52;;
24873;SDS011;12945;42.648;23.370;2023-12-07T07:20:23;31.48;;;17.50;;
24873;SDS011;12945;42.648;23.370;2023-12-07T07:22:48;29.45;;;16.75;;
24873;SDS011;12945;42.648;23.370;2023-12-07T07:25:14;29.33;;;17.27;;
24873;SDS011;12945;42.648;23.370;2023-12-07T07:27:44;31.08;;;17.10;;
24873;SDS011;12945;42.648;23.370;2023-12-07T07:30:09;28.98;;;15.18;;
24873;SDS011;12945;42.648;23.370;2023-12-07T07:32:35;32.35;;;16.80;;
24873;SDS011;12945;42.648;23.370;2023-12-07T07:35:01;28.58;;;16.38;;
24873;SDS011;12945;42.648;23.370;2023-12-07T07:37:26;36.00;;;17.67;;
24873;SDS011;12945;42.648;23.370;2023-12-07T07:39:51;28.77;;;16.02;;
24873;SDS011;12945;42.648;23.370;2023-12-07T07:42:17;32.97;;;16.77;;
24873;SDS011;12945;42.648;23.370;2023-12-07T07:44:42;32.50;;;16.60;;
24873;SDS011;12945;42.648;23.370;2023-12-07T07:47:07;29.73;;;16.90;;
24873;SDS011;12945;42.648;23.370;2023-12-07T07:49:33;29.98;;;17.10;;
24873;SDS011;12945;42.648;23.370;2023-12-07T07:51:58;34.45;;;19.67;;
24873;SDS011;12945;42.648;23.370;2023-12-07T07:54:24;31.92;;;17.50;;
24873;SDS011;12945;42.648;23.370;2023-12-07T07:56:49;32.20;;;18.63;;
24873;SDS011;12945;42.648;23.370;2023-12-07T07:59:15;31.00;;;19.13;;
24873;SDS011;12945;42.648;23.370;2023-12-07T08:01:40;35.30;;;17.85;;
24873;SDS011;12945;42.648;23.370;2023-12-07T08:04:05;34.78;;;18.92;;
24873;SDS011;12945;42.648;23.370;2023-12-07T08:06:31;30.85;;;17.23;;
24873;SDS011;12945;42.648;23.370;2023-12-07T08:08:56;35.15;;;18.88;;
24873;SDS011;12945;42.648;23.370;2023-12-07T08:11:21;32.05;;;16.05;;
24873;SDS011;12945;42.648;23.370;2023-12-07T08:13:46;29.95;;;16.25;;
24873;SDS011;12945;42.648;23.370;2023-12-07T08:16:12;24.48;;;14.30;;
24873;SDS011;12945;42.648;23.370;2023-12-07T08:18:37;20.83;;;12.73;;
24873;SDS011;12945;42.648;23.370;2023-12-07T08:21:03;28.20;;;12.18;;
24873;SDS011;12945;42.648;23.370;2023-12-07T08:23:28;22.63;;;13.43;;
24873;SDS011;12945;42.648;23.370;2023-12-07T08:25:53;22.92;;;12.35;;
24873;SDS011;12945;42.648;23.370;2023-12-07T08:28:22;22.45;;;12.38;;
24873;SDS011;12945;42.648;23.370;2023-12-07T08:30:48;17.45;;;10.70;;
24873;SDS011;12945;42.648;23.370;2023-12-07T08:33:13;17.63;;;10.15;;
24873;SDS011;12945;42.648;23.370;2023-12-07T08:35:39;18.00;;;11.10;;
24873;SDS011;12945;42.648;23.370;2023-12-07T08:38:04;19.92;;;11.00;;
24873;SDS011;12945;42.648;23.370;2023-12-07T08:40:29;24.73;;;11.40;;
24873;SDS011;12945;42.648;23.370;2023-12-07T08:42:55;16.08;;;11.02;;
24873;SDS011;12945;42.648;23.370;2023-12-07T08:45:20;15.05;;;10.25;;
24873;SDS011;12945;42.648;23.370;2023-12-07T08:47:45;14.63;;;10.15;;
24873;SDS011;12945;42.648;23.370;2023-12-07T08:50:11;18.35;;;9.93;;
24873;SDS011;12945;42.648;23.370;2023-12-07T08:52:36;15.38;;;9.27;;
24873;SDS011;12945;42.648;23.370;2023-12-07T08:55:01;17.05;;;9.45;;
24873;SDS011;12945;42.648;23.370;2023-12-07T08:57:27;17.65;;;10.30;;
24873;SDS011;12945;42.648;23.370;2023-12-07T08:59:52;11.63;;;8.52;;
24873;SDS011;12945;42.648;23.370;2023-12-07T09:02:19;12.48;;;7.93;;
24873;SDS011;12945;42.648;23.370;2023-12-07T09:04:45;11.35;;;7.28;;
24873;SDS011;12945;42.648;23.370;2023-12-07T09:07:10;14.05;;;7.40;;
24873;SDS011;12945;42.648;23.370;2023-12-07T09:09:40;15.20;;;7.75;;
24873;SDS011;12945;42.648;23.370;2023-12-07T09:12:11;10.88;;;7.10;;
24873;SDS011;12945;42.648;23.370;2023-12-07T09:14:37;8.15;;;5.55;;
24873;SDS011;12945;42.648;23.370;2023-12-07T09:17:02;10.93;;;6.18;;
24873;SDS011;12945;42.648;23.370;2023-12-07T09:19:27;8.18;;;5.35;;
24873;SDS011;12945;42.648;23.370;2023-12-07T09:21:53;10.90;;;6.03;;
24873;SDS011;12945;42.648;23.370;2023-12-07T09:24:18;8.93;;;5.90;;
24873;SDS011;12945;42.648;23.370;2023-12-07T09:26:44;9.93;;;5.50;;
24873;SDS011;12945;42.648;23.370;2023-12-07T09:29:09;5.53;;;4.15;;
24873;SDS011;12945;42.648;23.370;2023-12-07T09:31:34;6.82;;;3.75;;
24873;SDS011;12945;42.648;23.370;2023-12-07T09:34:00;6.97;;;4.10;;
24873;SDS011;12945;42.648;23.370;2023-12-07T09:36:25;7.28;;;4.18;;
24873;SDS011;12945;42.648;23.370;2023-12-07T09:38:53;5.55;;;3.85;;
24873;SDS011;12945;42.648;23.370;2023-12-07T09:41:18;4.25;;;3.03;;
24873;SDS011;12945;42.648;23.370;2023-12-07T09:43:44;5.35;;;3.15;;
24873;SDS011;12945;42.648;23.370;2023-12-07T09:46:09;4.93;;;3.25;;
24873;SDS011;12945;42.648;23.370;2023-12-07T09:48:36;7.60;;;3.28;;
24873;SDS011;12945;42.648;23.370;2023-12-07T09:51:02;5.57;;;2.83;;
24873;SDS011;12945;42.648;23.370;2023-12-07T09:53:28;5.60;;;3.30;;
24873;SDS011;12945;42.648;23.370;2023-12-07T09:55:54;6.88;;;3.25;;
24873;SDS011;12945;42.648;23.370;2023-12-07T09:58:19;4.90;;;2.67;;
24873;SDS011;12945;42.648;23.370;2023-12-07T10:00:46;3.60;;;2.45;;
24873;SDS011;12945;42.648;23.370;2023-12-07T10:03:19;4.82;;;2.92;;
24873;SDS011;12945;42.648;23.370;2023-12-07T10:05:52;4.55;;;2.63;;
24873;SDS011;12945;42.648;23.370;2023-12-07T10:08:25;5.32;;;2.50;;
24873;SDS011;12945;42.648;23.370;2023-12-07T10:10:53;6.45;;;2.60;;
24873;SDS011;12945;42.648;23.370;2023-12-07T10:13:26;4.53;;;2.55;;
24873;SDS011;12945;42.648;23.370;2023-12-07T10:16:04;2.85;;;2.20;;
24873;SDS011;12945;42.648;23.370;2023-12-07T10:18:30;3.35;;;2.30;;
24873;SDS011;12945;42.648;23.370;2023-12-07T10:20:56;4.05;;;2.40;;
24873;SDS011;12945;42.648;23.370;2023-12-07T10:23:21;4.70;;;2.80;;
24873;SDS011;12945;42.648;23.370;2023-12-07T10:25:50;5.03;;;2.50;;
24873;SDS011;12945;42.648;23.370;2023-12-07T10:28:15;5.15;;;2.60;;
24873;SDS011;12945;42.648;23.370;2023-12-07T10:30:42;6.60;;;2.22;;
24873;SDS011;12945;42.648;23.370;2023-12-07T10:33:09;3.22;;;1.85;;
24873;SDS011;12945;42.648;23.370;2023-12-07T10:35:41;2.63;;;1.80;;
24873;SDS011;12945;42.648;23.370;2023-12-07T10:38:07;4.85;;;2.38;;
24873;SDS011;12945;42.648;23.370;2023-12-07T10:40:32;3.15;;;2.10;;
24873;SDS011;12945;42.648;23.370;2023-12-07T10:42:58;6.35;;;2.17;;
24873;SDS011;12945;42.648;23.370;2023-12-07T10:45:27;2.85;;;2.20;;
24873;SDS011;12945;42.648;23.370;2023-12-07T10:47:54;3.00;;;2.17;;
24873;SDS011;12945;42.648;23.370;2023-12-07T10:52:52;4.25;;;2.25;;
24873;SDS011;12945;42.648;23.370;2023-12-07T10:55:27;4.25;;;2.38;;
24873;SDS011;12945;42.648;23.370;2023-12-07T10:57:53;3.70;;;2.40;;
24873;SDS011;12945;42.648;23.370;2023-12-07T11:00:20;4.68;;;2.63;;
24873;SDS011;12945;42.648;23.370;2023-12-07T11:02:49;6.38;;;2.78;;
24873;SDS011;12945;42.648;23.370;2023-12-07T11:05:17;5.05;;;3.25;;
24873;SDS011;12945;42.648;23.370;2023-12-07T11:07:50;5.43;;;2.67;;
24873;SDS011;12945;42.648;23.370;2023-12-07T11:10:21;5.20;;;2.85;;
24873;SDS011;12945;42.648;23.370;2023-12-07T11:12:53;5.15;;;2.88;;
24873;SDS011;12945;42.648;23.370;2023-12-07T11:17:50;4.90;;;2.80;;
24873;SDS011;12945;42.648;23.370;2023-12-07T11:20:18;2.55;;;1.85;;
24873;SDS011;12945;42.648;23.370;2023-12-07T11:22:43;2.95;;;2.20;;
24873;SDS011;12945;42.648;23.370;2023-12-07T11:25:08;4.47;;;3.00;;
24873;SDS011;12945;42.648;23.370;2023-12-07T11:27:35;4.53;;;2.50;;
24873;SDS011;12945;42.648;23.370;2023-12-07T11:30:01;4.65;;;2.80;;
24873;SDS011;12945;42.648;23.370;2023-12-07T11:32:27;5.72;;;3.08;;
24873;SDS011;12945;42.648;23.370;2023-12-07T11:34:52;4.95;;;3.15;;
24873;SDS011;12945;42.648;23.370;2023-12-07T11:37:17;6.93;;;3.45;;
24873;SDS011;12945;42.648;23.370;2023-12-07T11:39:45;6.28;;;3.45;;
24873;SDS011;12945;42.648;23.370;2023-12-07T11:42:11;5.30;;;3.15;;
24873;SDS011;12945;42.648;23.370;2023-12-07T11:44:37;5.75;;;3.30;;
24873;SDS011;12945;42.648;23.370;2023-12-07T11:47:02;6.15;;;3.63;;
24873;SDS011;12945;42.648;23.370;2023-12-07T11:49:28;5.03;;;3.10;;
24873;SDS011;12945;42.648;23.370;2023-12-07T11:51:54;4.57;;;3.00;;
24873;SDS011;12945;42.648;23.370;2023-12-07T11:54:19;4.82;;;2.58;;
24873;SDS011;12945;42.648;23.370;2023-12-07T11:56:44;3.38;;;2.17;;
24873;SDS011;12945;42.648;23.370;2023-12-07T11:59:09;4.85;;;2.53;;
24873;SDS011;12945;42.648;23.370;2023-12-07T12:01:35;4.30;;;3.13;;
24873;SDS011;12945;42.648;23.370;2023-12-07T12:04:00;5.97;;;2.85;;
24873;SDS011;12945;42.648;23.370;2023-12-07T12:06:25;4.28;;;2.78;;
24873;SDS011;12945;42.648;23.370;2023-12-07T12:08:51;6.25;;;2.83;;
24873;SDS011;12945;42.648;23.370;2023-12-07T12:11:17;6.20;;;3.50;;
24873;SDS011;12945;42.648;23.370;2023-12-07T12:13:44;7.80;;;3.42;;
24873;SDS011;12945;42.648;23.370;2023-12-07T12:16:10;7.25;;;2.97;;
24873;SDS011;12945;42.648;23.370;2023-12-07T12:18:36;6.90;;;3.40;;
24873;SDS011;12945;42.648;23.370;2023-12-07T12:21:02;9.25;;;4.03;;
24873;SDS011;12945;42.648;23.370;2023-12-07T12:23:27;7.68;;;4.18;;
24873;SDS011;12945;42.648;23.370;2023-12-07T12:25:54;9.13;;;4.18;;
24873;SDS011;12945;42.648;23.370;2023-12-07T12:28:19;9.13;;;3.88;;
24873;SDS011;12945;42.648;23.370;2023-12-07T12:30:47;8.15;;;3.55;;
24873;SDS011;12945;42.648;23.370;2023-12-07T12:33:13;7.32;;;3.75;;
24873;SDS011;12945;42.648;23.370;2023-12-07T12:35:38;5.35;;;3.28;;
24873;SDS011;12945;42.648;23.370;2023-12-07T12:38:08;6.28;;;3.78;;
24873;SDS011;12945;42.648;23.370;2023-12-07T12:40:33;4.20;;;2.90;;
24873;SDS011;12945;42.648;23.370;2023-12-07T12:42:59;4.35;;;3.00;;
24873;SDS011;12945;42.648;23.370;2023-12-07T12:45:25;6.53;;;3.80;;
24873;SDS011;12945;42.648;23.370;2023-12-07T12:47:50;5.30;;;3.33;;
24873;SDS011;12945;42.648;23.370;2023-12-07T12:52:59;4.65;;;3.35;;
24873;SDS011;12945;42.648;23.370;2023-12-07T12:55:26;8.27;;;3.55;;
24873;SDS011;12945;42.648;23.370;2023-12-07T12:57:51;5.95;;;3.75;;
24873;SDS011;12945;42.648;23.370;2023-12-07T13:00:17;7.75;;;3.97;;
24873;SDS011;12945;42.648;23.370;2023-12-07T13:02:42;7.20;;;3.90;;
24873;SDS011;12945;42.648;23.370;2023-12-07T13:05:07;10.73;;;4.40;;
24873;SDS011;12945;42.648;23.370;2023-12-07T13:07:33;6.90;;;3.80;;
24873;SDS011;12945;42.648;23.370;2023-12-07T13:09:58;5.63;;;3.95;;
24873;SDS011;12945;42.648;23.370;2023-12-07T13:12:24;7.57;;;4.18;;
24873;SDS011;12945;42.648;23.370;2023-12-07T13:14:52;5.85;;;4.20;;
24873;SDS011;12945;42.648;23.370;2023-12-07T13:17:18;8.00;;;4.35;;
24873;SDS011;12945;42.648;23.370;2023-12-07T13:19:43;5.97;;;3.90;;
24873;SDS011;12945;42.648;23.370;2023-12-07T13:22:08;6.03;;;4.38;;
24873;SDS011;12945;42.648;23.370;2023-12-07T13:24:34;8.07;;;4.20;;
24873;SDS011;12945;42.648;23.370;2023-12-07T13:27:00;7.15;;;4.72;;
24873;SDS011;12945;42.648;23.370;2023-12-07T13:29:25;9.18;;;4.93;;
24873;SDS011;12945;42.648;23.370;2023-12-07T13:31:50;7.40;;;4.47;;
24873;SDS011;12945;42.648;23.370;2023-12-07T13:34:16;7.43;;;4.80;;
24873;SDS011;12945;42.648;23.370;2023-12-07T13:36:41;6.75;;;4.43;;
24873;SDS011;12945;42.648;23.370;2023-12-07T13:39:06;5.57;;;4.40;;
24873;SDS011;12945;42.648;23.370;2023-12-07T13:41:33;7.90;;;5.15;;
24873;SDS011;12945;42.648;23.370;2023-12-07T13:43:59;6.65;;;4.82;;
24873;SDS011;12945;42.648;23.370;2023-12-07T13:46:26;6.43;;;4.78;;
24873;SDS011;12945;42.648;23.370;2023-12-07T13:48:51;8.30;;;5.90;;
24873;SDS011;12945;42.648;23.370;2023-12-07T13:51:17;11.77;;;8.00;;
24873;SDS011;12945;42.648;23.370;2023-12-07T13:53:43;14.15;;;9.30;;
24873;SDS011;12945;42.648;23.370;2023-12-07T13:56:08;12.43;;;7.88;;
24873;SDS011;12945;42.648;23.370;2023-12-07T13:58:34;14.88;;;11.00;;
24873;SDS011;12945;42.648;23.370;2023-12-07T14:01:00;11.90;;;9.20;;
24873;SDS011;12945;42.648;23.370;2023-12-07T14:03:26;17.45;;;10.07;;
24873;SDS011;12945;42.648;23.370;2023-12-07T14:05:51;11.88;;;8.07;;
24873;SDS011;12945;42.648;23.370;2023-12-07T14:08:17;11.75;;;7.47;;
24873;SDS011;12945;42.648;23.370;2023-12-07T14:10:44;10.02;;;6.72;;
24873;SDS011;12945;42.648;23.370;2023-12-07T14:13:09;10.48;;;6.32;;
24873;SDS011;12945;42.648;23.370;2023-12-07T14:15:34;10.50;;;6.90;;
24873;SDS011;12945;42.648;23.370;2023-12-07T14:18:00;11.18;;;6.32;;
24873;SDS011;12945;42.648;23.370;2023-12-07T14:20:26;10.45;;;7.13;;